sensor_id;sensor_type;location;lat;lon;timestamp;temperature;humidity
15815;DHT22;8008;50.024;8.172;2023-02-25T04:01:55;5.50;99.90
15815;DHT22;8008;50.024;8.172;2023-02-25T04:04:23;5.40;99.90
15815;DHT22;8008;50.024;8.172;2023-02-25T04:06:53;5.50;99.90
15815;DHT22;8008;50.024;8.172;2023-02-25T04:09:20;5.50;99.90
15815;DHT22;8008;50.024;8.172;2023-02-25T04:11:48;5.50;99.90
15815;DHT22;8008;50.024;8.172;2023-02-25T04:14:16;5.60;99.90
15815;DHT22;8008;50.024;8.172;2023-02-25T04:16:45;5.60;99.90
15815;DHT22;8008;50.024;8.172;2023-02-25T04:19:14;5.60;99.90
15815;DHT22;8008;50.024;8.172;2023-02-25T04:21:42;5.60;99.90
15815;DHT22;8008;50.024;8.172;2023-02-25T04:24:10;5.60;99.90
15815;DHT22;8008;50.024;8.172;2023-02-25T04:26:38;5.60;99.90
15815;DHT22;8008;50.024;8.172;2023-02-25T04:29:06;5.60;99.90
15815;DHT22;8008;50.024;8.172;2023-02-25T04:31:34;5.50;99.90
15815;DHT22;8008;50.024;8.172;2023-02-25T04:34:02;5.50;99.90
15815;DHT22;8008;50.024;8.172;2023-02-25T04:36:34;5.50;99.90
15815;DHT22;8008;50.024;8.172;2023-02-25T04:39:04;5.50;99.90
15815;DHT22;8008;50.024;8.172;2023-02-25T04:41:34;5.50;99.90
15815;DHT22;8008;50.024;8.172;2023-02-25T04:44:03;5.60;99.90
15815;DHT22;8008;50.024;8.172;2023-02-25T04:46:34;5.60;99.90
15815;DHT22;8008;50.024;8.172;2023-02-25T04:49:02;5.60;99.90
15815;DHT22;8008;50.024;8.172;2023-02-25T04:51:32;5.60;99.90
15815;DHT22;8008;50.024;8.172;2023-02-25T04:54:00;5.50;99.90
15815;DHT22;8008;50.024;8.172;2023-02-25T04:56:28;5.50;99.90
15815;DHT22;8008;50.024;8.172;2023-02-25T04:58:57;5.50;99.90
15815;DHT22;8008;50.024;8.172;2023-02-25T05:01:25;5.40;99.90
15815;DHT22;8008;50.024;8.172;2023-02-25T05:03:52;5.40;99.90
15815;DHT22;8008;50.024;8.172;2023-02-25T05:06:22;5.40;99.90
15815;DHT22;8008;50.024;8.172;2023-02-25T05:08:52;5.40;99.90
15815;DHT22;8008;50.024;8.172;2023-02-25T05:11:20;5.40;99.90
15815;DHT22;8008;50.024;8.172;2023-02-25T05:13:48;5.30;99.90
15815;DHT22;8008;50.024;8.172;2023-02-25T05:16:17;5.30;99.90
15815;DHT22;8008;50.024;8.172;2023-02-25T05:18:46;5.30;99.90
15815;DHT22;8008;50.024;8.172;2023-02-25T05:21:15;5.30;99.90
15815;DHT22;8008;50.024;8.172;2023-02-25T05:23:44;5.30;99.90
15815;DHT22;8008;50.024;8.172;2023-02-25T05:26:15;5.30;99.90
15815;DHT22;8008;50.024;8.172;2023-02-25T05:28:43;5.20;99.90
15815;DHT22;8008;50.024;8.172;2023-02-25T05:31:11;5.30;99.90
15815;DHT22;8008;50.024;8.172;2023-02-25T05:33:40;5.30;99.90
15815;DHT22;8008;50.024;8.172;2023-02-25T05:36:09;5.20;99.90
15815;DHT22;8008;50.024;8.172;2023-02-25T05:38:37;5.20;99.90
15815;DHT22;8008;50.024;8.172;2023-02-25T05:41:06;5.10;99.90
15815;DHT22;8008;50.024;8.172;2023-02-25T05:43:37;5.00;99.90
15815;DHT22;8008;50.024;8.172;2023-02-25T05:46:07;4.90;99.90
15815;DHT22;8008;50.024;8.172;2023-02-25T05:48:38;4.90;99.90
15815;DHT22;8008;50.024;8.172;2023-02-25T05:51:07;4.90;99.90
15815;DHT22;8008;50.024;8.172;2023-02-25T05:53:35;4.90;99.90
15815;DHT22;8008;50.024;8.172;2023-02-25T05:56:04;4.80;99.90
15815;DHT22;8008;50.024;8.172;2023-02-25T05:58:33;4.80;99.90
15815;DHT22;8008;50.024;8.172;2023-02-25T06:01:07;4.80;99.90
15815;DHT22;8008;50.024;8.172;2023-02-25T06:03:36;4.80;99.90
15815;DHT22;8008;50.024;8.172;2023-02-25T06:06:05;4.80;99.90
15815;DHT22;8008;50.024;8.172;2023-02-25T06:08:34;4.80;99.90
15815;DHT22;8008;50.024;8.172;2023-02-25T06:11:04;4.80;99.90
15815;DHT22;8008;50.024;8.172;2023-02-25T06:13:33;4.80;99.90
15815;DHT22;8008;50.024;8.172;2023-02-25T06:16:02;4.80;99.90
15815;DHT22;8008;50.024;8.172;2023-02-25T06:18:32;4.90;99.90
15815;DHT22;8008;50.024;8.172;2023-02-25T06:21:03;4.90;99.90
15815;DHT22;8008;50.024;8.172;2023-02-25T06:23:32;5.00;99.90
15815;DHT22;8008;50.024;8.172;2023-02-25T06:26:00;4.90;99.90
15815;DHT22;8008;50.024;8.172;2023-02-25T06:28:29;4.90;99.90
15815;DHT22;8008;50.024;8.172;2023-02-25T06:30:57;4.90;99.90
15815;DHT22;8008;50.024;8.172;2023-02-25T06:33:25;4.90;99.90
15815;DHT22;8008;50.024;8.172;2023-02-25T06:35:58;4.90;99.90
15815;DHT22;8008;50.024;8.172;2023-02-25T06:38:26;4.80;99.90
15815;DHT22;8008;50.024;8.172;2023-02-25T06:40:53;4.90;99.90
15815;DHT22;8008;50.024;8.172;2023-02-25T06:43:22;4.90;99.90
15815;DHT22;8008;50.024;8.172;2023-02-25T06:45:49;5.00;99.90
15815;DHT22;8008;50.024;8.172;2023-02-25T06:48:17;5.00;99.90
15815;DHT22;8008;50.024;8.172;2023-02-25T06:50:45;4.90;99.90
15815;DHT22;8008;50.024;8.172;2023-02-25T06:53:14;4.90;99.90
15815;DHT22;8008;50.024;8.172;2023-02-25T06:55:42;4.90;99.90
15815;DHT22;8008;50.024;8.172;2023-02-25T06:58:10;4.90;99.90
15815;DHT22;8008;50.024;8.172;2023-02-25T07:00:41;4.90;99.90
15815;DHT22;8008;50.024;8.172;2023-02-25T07:03:10;4.90;99.90
15815;DHT22;8008;50.024;8.172;2023-02-25T07:05:38;4.90;99.90
15815;DHT22;8008;50.024;8.172;2023-02-25T07:08:06;4.90;99.90
15815;DHT22;8008;50.024;8.172;2023-02-25T07:10:35;4.90;99.90
15815;DHT22;8008;50.024;8.172;2023-02-25T07:13:06;5.00;99.90
15815;DHT22;8008;50.024;8.172;2023-02-25T07:15:34;5.00;99.90
15815;DHT22;8008;50.024;8.172;2023-02-25T07:18:02;5.00;99.90
15815;DHT22;8008;50.024;8.172;2023-02-25T07:20:30;5.00;99.90
15815;DHT22;8008;50.024;8.172;2023-02-25T07:23:01;5.20;99.90
15815;DHT22;8008;50.024;8.172;2023-02-25T07:25:29;5.20;99.90
15815;DHT22;8008;50.024;8.172;2023-02-25T07:27:59;5.30;99.90
15815;DHT22;8008;50.024;8.172;2023-02-25T07:30:27;5.40;99.90
15815;DHT22;8008;50.024;8.172;2023-02-25T07:32:54;5.50;99.90
15815;DHT22;8008;50.024;8.172;2023-02-25T07:35:23;5.50;99.90
15815;DHT22;8008;50.024;8.172;2023-02-25T07:37:51;5.50;99.90
15815;DHT22;8008;50.024;8.172;2023-02-25T07:40:19;5.40;99.90
15815;DHT22;8008;50.024;8.172;2023-02-25T07:42:46;5.40;99.90
15815;DHT22;8008;50.024;8.172;2023-02-25T07:45:16;5.50;99.90
15815;DHT22;8008;50.024;8.172;2023-02-25T07:47:44;5.60;99.90
15815;DHT22;8008;50.024;8.172;2023-02-25T07:50:12;5.50;99.90
15815;DHT22;8008;50.024;8.172;2023-02-25T07:52:40;5.50;99.90
15815;DHT22;8008;50.024;8.172;2023-02-25T07:55:08;5.50;99.90
15815;DHT22;8008;50.024;8.172;2023-02-25T07:57:36;5.60;99.90
15815;DHT22;8008;50.024;8.172;2023-02-25T08:00:05;5.70;99.90
15815;DHT22;8008;50.024;8.172;2023-02-25T08:02:39;5.70;99.90
15815;DHT22;8008;50.024;8.172;2023-02-25T08:05:08;5.70;99.90
15815;DHT22;8008;50.024;8.172;2023-02-25T08:07:37;5.80;99.90
15815;DHT22;8008;50.024;8.172;2023-02-25T08:10:05;5.80;99.90
15815;DHT22;8008;50.024;8.172;2023-02-25T08:12:33;5.80;99.90
15815;DHT22;8008;50.024;8.172;2023-02-25T08:15:01;5.80;99.90
15815;DHT22;8008;50.024;8.172;2023-02-25T08:17:32;5.80;99.90
15815;DHT22;8008;50.024;8.172;2023-02-25T08:20:02;5.90;99.90
15815;DHT22;8008;50.024;8.172;2023-02-25T08:22:31;5.90;99.90
15815;DHT22;8008;50.024;8.172;2023-02-25T08:24:59;6.00;99.90
15815;DHT22;8008;50.024;8.172;2023-02-25T08:27:27;6.00;99.90
15815;DHT22;8008;50.024;8.172;2023-02-25T08:29:56;6.00;99.90
15815;DHT22;8008;50.024;8.172;2023-02-25T08:32:24;6.10;99.90
15815;DHT22;8008;50.024;8.172;2023-02-25T08:34:53;6.10;99.90
15815;DHT22;8008;50.024;8.172;2023-02-25T08:37:23;6.20;99.90
15815;DHT22;8008;50.024;8.172;2023-02-25T08:39:53;6.40;99.90
15815;DHT22;8008;50.024;8.172;2023-02-25T08:42:22;6.50;99.90
15815;DHT22;8008;50.024;8.172;2023-02-25T08:44:50;6.50;99.90
15815;DHT22;8008;50.024;8.172;2023-02-25T08:47:18;6.30;99.90
15815;DHT22;8008;50.024;8.172;2023-02-25T08:49:46;6.00;99.90
15815;DHT22;8008;50.024;8.172;2023-02-25T08:52:14;5.80;99.90
15815;DHT22;8008;50.024;8.172;2023-02-25T08:54:43;5.90;99.90
15815;DHT22;8008;50.024;8.172;2023-02-25T08:57:12;5.80;99.90
15815;DHT22;8008;50.024;8.172;2023-02-25T08:59:39;5.90;99.90
15815;DHT22;8008;50.024;8.172;2023-02-25T09:02:10;6.00;99.90
15815;DHT22;8008;50.024;8.172;2023-02-25T09:04:40;6.10;99.90
15815;DHT22;8008;50.024;8.172;2023-02-25T09:07:08;6.20;99.90
15815;DHT22;8008;50.024;8.172;2023-02-25T09:09:39;6.40;99.90
15815;DHT22;8008;50.024;8.172;2023-02-25T09:12:09;6.50;99.90
15815;DHT22;8008;50.024;8.172;2023-02-25T09:14:36;6.60;99.90
15815;DHT22;8008;50.024;8.172;2023-02-25T09:17:05;6.70;99.90
15815;DHT22;8008;50.024;8.172;2023-02-25T09:19:34;6.70;99.90
15815;DHT22;8008;50.024;8.172;2023-02-25T09:22:04;6.80;99.90
15815;DHT22;8008;50.024;8.172;2023-02-25T09:24:33;6.80;99.90
15815;DHT22;8008;50.024;8.172;2023-02-25T09:27:02;6.70;99.90
15815;DHT22;8008;50.024;8.172;2023-02-25T09:29:35;6.70;99.90
15815;DHT22;8008;50.024;8.172;2023-02-25T09:32:03;6.70;99.90
15815;DHT22;8008;50.024;8.172;2023-02-25T09:34:32;6.50;99.90
15815;DHT22;8008;50.024;8.172;2023-02-25T09:37:02;6.70;99.90
15815;DHT22;8008;50.024;8.172;2023-02-25T09:39:30;6.60;99.90
15815;DHT22;8008;50.024;8.172;2023-02-25T09:42:05;6.50;99.90
15815;DHT22;8008;50.024;8.172;2023-02-25T09:44:39;6.50;99.90
15815;DHT22;8008;50.024;8.172;2023-02-25T09:47:14;6.70;99.90
15815;DHT22;8008;50.024;8.172;2023-02-25T09:49:48;6.80;99.90
15815;DHT22;8008;50.024;8.172;2023-02-25T09:52:22;6.90;99.90
15815;DHT22;8008;50.024;8.172;2023-02-25T09:54:54;6.90;99.90
15815;DHT22;8008;50.024;8.172;2023-02-25T09:57:23;7.00;99.90
15815;DHT22;8008;50.024;8.172;2023-02-25T09:59:52;7.00;99.90
15815;DHT22;8008;50.024;8.172;2023-02-25T10:02:26;7.10;99.90
15815;DHT22;8008;50.024;8.172;2023-02-25T10:05:07;7.10;99.90
15815;DHT22;8008;50.024;8.172;2023-02-25T10:07:48;7.10;99.90
15815;DHT22;8008;50.024;8.172;2023-02-25T10:10:25;7.20;99.90
15815;DHT22;8008;50.024;8.172;2023-02-25T10:12:57;7.20;99.90
15815;DHT22;8008;50.024;8.172;2023-02-25T10:15:36;7.30;99.90
15815;DHT22;8008;50.024;8.172;2023-02-25T10:18:26;7.30;99.90
15815;DHT22;8008;50.024;8.172;2023-02-25T10:21:03;7.50;99.90
15815;DHT22;8008;50.024;8.172;2023-02-25T10:23:50;7.60;99.60
15815;DHT22;8008;50.024;8.172;2023-02-25T10:26:24;7.70;99.30
15815;DHT22;8008;50.024;8.172;2023-02-25T10:28:55;7.60;98.70
15815;DHT22;8008;50.024;8.172;2023-02-25T10:31:29;7.70;98.70
15815;DHT22;8008;50.024;8.172;2023-02-25T10:34:03;7.60;98.50
15815;DHT22;8008;50.024;8.172;2023-02-25T10:36:43;7.70;99.00
15815;DHT22;8008;50.024;8.172;2023-02-25T10:39:12;7.70;98.00
15815;DHT22;8008;50.024;8.172;2023-02-25T10:41:40;7.80;97.60
15815;DHT22;8008;50.024;8.172;2023-02-25T10:44:09;7.90;97.80
15815;DHT22;8008;50.024;8.172;2023-02-25T10:46:43;8.00;97.40
15815;DHT22;8008;50.024;8.172;2023-02-25T10:49:15;8.20;96.90
15815;DHT22;8008;50.024;8.172;2023-02-25T10:51:56;8.10;95.10
15815;DHT22;8008;50.024;8.172;2023-02-25T10:54:26;8.00;95.20
15815;DHT22;8008;50.024;8.172;2023-02-25T10:56:54;8.20;95.80
15815;DHT22;8008;50.024;8.172;2023-02-25T10:59:27;8.10;95.30
15815;DHT22;8008;50.024;8.172;2023-02-25T11:01:59;8.30;95.60
15815;DHT22;8008;50.024;8.172;2023-02-25T11:04:31;8.30;95.70
15815;DHT22;8008;50.024;8.172;2023-02-25T11:06:59;8.30;95.20
15815;DHT22;8008;50.024;8.172;2023-02-25T11:09:31;8.30;95.00
15815;DHT22;8008;50.024;8.172;2023-02-25T11:12:14;8.30;94.30
15815;DHT22;8008;50.024;8.172;2023-02-25T11:14:43;8.50;93.70
15815;DHT22;8008;50.024;8.172;2023-02-25T11:17:14;8.60;94.50
15815;DHT22;8008;50.024;8.172;2023-02-25T11:19:46;8.70;95.00
15815;DHT22;8008;50.024;8.172;2023-02-25T11:22:17;8.50;93.40
15815;DHT22;8008;50.024;8.172;2023-02-25T11:24:54;8.40;93.20
15815;DHT22;8008;50.024;8.172;2023-02-25T11:27:32;8.30;92.90
15815;DHT22;8008;50.024;8.172;2023-02-25T11:30:07;8.30;93.30
15815;DHT22;8008;50.024;8.172;2023-02-25T11:32:46;8.30;93.00
15815;DHT22;8008;50.024;8.172;2023-02-25T11:35:18;8.30;92.60
15815;DHT22;8008;50.024;8.172;2023-02-25T11:37:48;8.50;92.40
15815;DHT22;8008;50.024;8.172;2023-02-25T11:40:23;8.70;92.80
15815;DHT22;8008;50.024;8.172;2023-02-25T11:43:12;8.60;91.60
15815;DHT22;8008;50.024;8.172;2023-02-25T11:45:58;8.50;92.50
15815;DHT22;8008;50.024;8.172;2023-02-25T11:48:32;8.60;92.30
15815;DHT22;8008;50.024;8.172;2023-02-25T11:51:10;8.40;92.20
15815;DHT22;8008;50.024;8.172;2023-02-25T11:54:01;8.30;92.50
15815;DHT22;8008;50.024;8.172;2023-02-25T11:56:31;8.20;93.10
15815;DHT22;8008;50.024;8.172;2023-02-25T11:59:14;8.30;93.80
15815;DHT22;8008;50.024;8.172;2023-02-25T12:01:57;8.40;93.30
15815;DHT22;8008;50.024;8.172;2023-02-25T12:05:05;8.20;93.20
15815;DHT22;8008;50.024;8.172;2023-02-25T12:07:56;7.90;95.60
15815;DHT22;8008;50.024;8.172;2023-02-25T12:14:20;6.50;99.90
15815;DHT22;8008;50.024;8.172;2023-02-25T12:17:19;6.10;99.90
15815;DHT22;8008;50.024;8.172;2023-02-25T12:23:54;6.10;99.90
15815;DHT22;8008;50.024;8.172;2023-02-25T12:26:37;6.30;99.90
15815;DHT22;8008;50.024;8.172;2023-02-25T12:29:15;6.40;99.90
15815;DHT22;8008;50.024;8.172;2023-02-25T12:31:57;6.40;99.90
15815;DHT22;8008;50.024;8.172;2023-02-25T12:34:49;6.30;99.90
15815;DHT22;8008;50.024;8.172;2023-02-25T12:37:33;6.40;99.90
15815;DHT22;8008;50.024;8.172;2023-02-25T12:40:40;6.40;99.90
15815;DHT22;8008;50.024;8.172;2023-02-25T12:43:22;6.40;99.90
15815;DHT22;8008;50.024;8.172;2023-02-25T12:46:20;6.60;99.90
15815;DHT22;8008;50.024;8.172;2023-02-25T12:52:06;6.90;99.90
15815;DHT22;8008;50.024;8.172;2023-02-25T12:55:00;6.80;99.90
15815;DHT22;8008;50.024;8.172;2023-02-25T12:57:41;6.90;99.90
15815;DHT22;8008;50.024;8.172;2023-02-25T13:00:47;7.10;99.90
15815;DHT22;8008;50.024;8.172;2023-02-25T13:03:38;7.20;99.90
15815;DHT22;8008;50.024;8.172;2023-02-25T13:06:24;7.30;99.90
15815;DHT22;8008;50.024;8.172;2023-02-25T13:09:11;7.40;99.90
15815;DHT22;8008;50.024;8.172;2023-02-25T13:11:50;7.50;99.90
15815;DHT22;8008;50.024;8.172;2023-02-25T13:14:48;7.30;99.90
15815;DHT22;8008;50.024;8.172;2023-02-25T13:17:32;7.30;99.90
15815;DHT22;8008;50.024;8.172;2023-02-25T13:20:24;7.30;99.90
15815;DHT22;8008;50.024;8.172;2023-02-25T13:23:06;7.40;99.90
15815;DHT22;8008;50.024;8.172;2023-02-25T13:25:52;7.40;99.90
15815;DHT22;8008;50.024;8.172;2023-02-25T13:28:36;7.40;99.90
15815;DHT22;8008;50.024;8.172;2023-02-25T13:31:13;7.30;99.90
15815;DHT22;8008;50.024;8.172;2023-02-25T13:34:05;7.40;99.90
15815;DHT22;8008;50.024;8.172;2023-02-25T13:37:15;7.40;99.90
15815;DHT22;8008;50.024;8.172;2023-02-25T13:40:01;7.50;99.90
15815;DHT22;8008;50.024;8.172;2023-02-25T13:42:54;7.50;99.90
15815;DHT22;8008;50.024;8.172;2023-02-25T13:48:46;7.60;99.90
15815;DHT22;8008;50.024;8.172;2023-02-25T13:51:28;7.60;99.90
15815;DHT22;8008;50.024;8.172;2023-02-25T13:54:11;7.50;99.70
15815;DHT22;8008;50.024;8.172;2023-02-25T13:56:51;7.50;99.90
15815;DHT22;8008;50.024;8.172;2023-02-25T13:59:33;7.40;99.60
15815;DHT22;8008;50.024;8.172;2023-02-25T14:05:43;7.20;99.90
15815;DHT22;8008;50.024;8.172;2023-02-25T14:08:39;7.20;99.90
15815;DHT22;8008;50.024;8.172;2023-02-25T14:11:24;7.20;99.90
15815;DHT22;8008;50.024;8.172;2023-02-25T14:17:14;7.20;99.90
15815;DHT22;8008;50.024;8.172;2023-02-25T14:19:52;7.40;99.90
15815;DHT22;8008;50.024;8.172;2023-02-25T14:22:34;7.60;99.90
15815;DHT22;8008;50.024;8.172;2023-02-25T14:25:15;7.70;99.90
15815;DHT22;8008;50.024;8.172;2023-02-25T14:27:53;7.70;99.90
15815;DHT22;8008;50.024;8.172;2023-02-25T14:30:32;7.80;98.40
15815;DHT22;8008;50.024;8.172;2023-02-25T14:36:19;8.20;96.60
15815;DHT22;8008;50.024;8.172;2023-02-25T14:39:10;8.30;96.40
15815;DHT22;8008;50.024;8.172;2023-02-25T14:41:52;8.40;95.50
15815;DHT22;8008;50.024;8.172;2023-02-25T14:44:28;9.40;94.20
15815;DHT22;8008;50.024;8.172;2023-02-25T14:47:00;11.30;93.60
15815;DHT22;8008;50.024;8.172;2023-02-25T14:49:36;13.00;90.50
15815;DHT22;8008;50.024;8.172;2023-02-25T14:52:25;13.90;83.10
15815;DHT22;8008;50.024;8.172;2023-02-25T14:55:29;14.50;75.90
15815;DHT22;8008;50.024;8.172;2023-02-25T14:58:29;13.70;77.10
15815;DHT22;8008;50.024;8.172;2023-02-25T15:01:23;13.60;76.60
15815;DHT22;8008;50.024;8.172;2023-02-25T15:07:13;15.70;70.00
15815;DHT22;8008;50.024;8.172;2023-02-25T15:13:20;15.80;64.10
15815;DHT22;8008;50.024;8.172;2023-02-25T15:16:14;13.20;66.00
15815;DHT22;8008;50.024;8.172;2023-02-25T15:19:32;11.50;68.10
15815;DHT22;8008;50.024;8.172;2023-02-25T15:22:22;10.50;71.30
15815;DHT22;8008;50.024;8.172;2023-02-25T15:24:51;9.90;73.30
15815;DHT22;8008;50.024;8.172;2023-02-25T15:27:53;9.50;71.70
15815;DHT22;8008;50.024;8.172;2023-02-25T15:30:25;9.20;73.20
15815;DHT22;8008;50.024;8.172;2023-02-25T15:33:12;9.10;73.00
15815;DHT22;8008;50.024;8.172;2023-02-25T15:36:00;8.80;73.40
15815;DHT22;8008;50.024;8.172;2023-02-25T15:38:41;8.30;72.00
15815;DHT22;8008;50.024;8.172;2023-02-25T15:41:38;8.20;73.60
15815;DHT22;8008;50.024;8.172;2023-02-25T15:44:29;8.00;72.30
15815;DHT22;8008;50.024;8.172;2023-02-25T15:47:28;7.90;73.60
15815;DHT22;8008;50.024;8.172;2023-02-25T15:49:56;7.90;73.50
15815;DHT22;8008;50.024;8.172;2023-02-25T15:52:49;7.80;73.00
15815;DHT22;8008;50.024;8.172;2023-02-25T15:55:29;7.80;72.70
15815;DHT22;8008;50.024;8.172;2023-02-25T15:57:57;7.80;73.10
15815;DHT22;8008;50.024;8.172;2023-02-25T16:00:48;7.70;72.70
15815;DHT22;8008;50.024;8.172;2023-02-25T16:03:27;7.80;73.90
15815;DHT22;8008;50.024;8.172;2023-02-25T16:06:07;7.80;73.10
15815;DHT22;8008;50.024;8.172;2023-02-25T16:08:41;7.80;72.70
15815;DHT22;8008;50.024;8.172;2023-02-25T16:11:19;7.70;71.70
15815;DHT22;8008;50.024;8.172;2023-02-25T16:13:50;7.70;69.50
15815;DHT22;8008;50.024;8.172;2023-02-25T16:16:19;7.30;67.50
15815;DHT22;8008;50.024;8.172;2023-02-25T16:18:51;7.20;67.60
15815;DHT22;8008;50.024;8.172;2023-02-25T16:21:22;7.10;68.70
15815;DHT22;8008;50.024;8.172;2023-02-25T16:23:53;7.10;68.90
15815;DHT22;8008;50.024;8.172;2023-02-25T16:26:37;7.10;68.80
15815;DHT22;8008;50.024;8.172;2023-02-25T16:29:15;7.10;68.10
15815;DHT22;8008;50.024;8.172;2023-02-25T16:31:50;7.10;67.90
15815;DHT22;8008;50.024;8.172;2023-02-25T16:34:26;7.00;67.30
15815;DHT22;8008;50.024;8.172;2023-02-25T16:37:03;7.00;67.30
15815;DHT22;8008;50.024;8.172;2023-02-25T16:39:34;6.90;65.80
15815;DHT22;8008;50.024;8.172;2023-02-25T16:42:05;6.90;66.30
15815;DHT22;8008;50.024;8.172;2023-02-25T16:44:37;6.90;65.30
15815;DHT22;8008;50.024;8.172;2023-02-25T16:47:20;6.80;63.80
15815;DHT22;8008;50.024;8.172;2023-02-25T16:49:50;6.60;63.10
15815;DHT22;8008;50.024;8.172;2023-02-25T16:52:22;6.50;63.20
15815;DHT22;8008;50.024;8.172;2023-02-25T16:54:53;6.40;63.80
15815;DHT22;8008;50.024;8.172;2023-02-25T16:57:23;6.40;64.10
15815;DHT22;8008;50.024;8.172;2023-02-25T17:00:15;6.30;64.40
15815;DHT22;8008;50.024;8.172;2023-02-25T17:02:45;6.30;63.90
15815;DHT22;8008;50.024;8.172;2023-02-25T17:05:24;6.30;63.70
15815;DHT22;8008;50.024;8.172;2023-02-25T17:07:54;6.20;62.40
15815;DHT22;8008;50.024;8.172;2023-02-25T17:10:25;6.10;62.60
15815;DHT22;8008;50.024;8.172;2023-02-25T17:12:53;6.00;63.30
15815;DHT22;8008;50.024;8.172;2023-02-25T17:15:24;5.90;62.70
15815;DHT22;8008;50.024;8.172;2023-02-25T17:17:58;5.90;63.00
15815;DHT22;8008;50.024;8.172;2023-02-25T17:20:29;5.90;61.90
15815;DHT22;8008;50.024;8.172;2023-02-25T17:22:58;5.90;62.70
15815;DHT22;8008;50.024;8.172;2023-02-25T17:25:35;5.90;62.30
15815;DHT22;8008;50.024;8.172;2023-02-25T17:28:05;5.80;60.90
15815;DHT22;8008;50.024;8.172;2023-02-25T17:30:37;5.80;61.70
15815;DHT22;8008;50.024;8.172;2023-02-25T17:33:14;5.80;61.70
15815;DHT22;8008;50.024;8.172;2023-02-25T17:35:46;5.90;61.40
15815;DHT22;8008;50.024;8.172;2023-02-25T17:38:17;5.90;61.50
15815;DHT22;8008;50.024;8.172;2023-02-25T17:40:46;5.90;61.80
15815;DHT22;8008;50.024;8.172;2023-02-25T17:43:18;5.90;62.60
15815;DHT22;8008;50.024;8.172;2023-02-25T17:45:49;5.90;60.90
15815;DHT22;8008;50.024;8.172;2023-02-25T17:48:20;5.90;60.60
15815;DHT22;8008;50.024;8.172;2023-02-25T17:50:57;5.80;61.30
15815;DHT22;8008;50.024;8.172;2023-02-25T17:53:33;5.80;61.00
15815;DHT22;8008;50.024;8.172;2023-02-25T17:56:17;5.80;61.30
15815;DHT22;8008;50.024;8.172;2023-02-25T17:58:49;5.80;61.40
15815;DHT22;8008;50.024;8.172;2023-02-25T18:01:20;5.80;61.40
15815;DHT22;8008;50.024;8.172;2023-02-25T18:03:50;5.80;61.70
15815;DHT22;8008;50.024;8.172;2023-02-25T18:06:39;5.80;62.00
15815;DHT22;8008;50.024;8.172;2023-02-25T18:09:27;5.80;62.50
15815;DHT22;8008;50.024;8.172;2023-02-25T18:11:57;5.70;61.90
15815;DHT22;8008;50.024;8.172;2023-02-25T18:14:31;5.50;61.70
15815;DHT22;8008;50.024;8.172;2023-02-25T18:17:00;5.50;62.30
15815;DHT22;8008;50.024;8.172;2023-02-25T18:19:34;5.50;63.20
15815;DHT22;8008;50.024;8.172;2023-02-25T18:22:06;5.40;63.30
15815;DHT22;8008;50.024;8.172;2023-02-25T18:24:36;5.40;63.50
15815;DHT22;8008;50.024;8.172;2023-02-25T18:27:20;5.30;62.90
15815;DHT22;8008;50.024;8.172;2023-02-25T18:29:50;5.30;63.20
15815;DHT22;8008;50.024;8.172;2023-02-25T18:32:18;5.20;63.40
15815;DHT22;8008;50.024;8.172;2023-02-25T18:34:45;5.20;64.10
15815;DHT22;8008;50.024;8.172;2023-02-25T18:37:17;5.20;63.30
15815;DHT22;8008;50.024;8.172;2023-02-25T18:39:46;5.20;63.10
15815;DHT22;8008;50.024;8.172;2023-02-25T18:42:16;5.20;63.90
15815;DHT22;8008;50.024;8.172;2023-02-25T18:44:45;5.10;63.40
15815;DHT22;8008;50.024;8.172;2023-02-25T18:47:13;5.10;62.30
15815;DHT22;8008;50.024;8.172;2023-02-25T18:49:42;5.00;62.10
15815;DHT22;8008;50.024;8.172;2023-02-25T18:52:17;5.00;62.40
15815;DHT22;8008;50.024;8.172;2023-02-25T18:54:46;5.00;62.10
15815;DHT22;8008;50.024;8.172;2023-02-25T18:57:21;5.00;61.70
15815;DHT22;8008;50.024;8.172;2023-02-25T18:59:50;4.90;61.60
15815;DHT22;8008;50.024;8.172;2023-02-25T19:02:29;5.10;61.50
15815;DHT22;8008;50.024;8.172;2023-02-25T19:04:59;5.10;60.70
15815;DHT22;8008;50.024;8.172;2023-02-25T19:07:30;5.10;60.10
15815;DHT22;8008;50.024;8.172;2023-02-25T19:09:59;5.10;60.50
15815;DHT22;8008;50.024;8.172;2023-02-25T19:12:28;5.10;59.80
15815;DHT22;8008;50.024;8.172;2023-02-25T19:15:00;5.00;60.10
15815;DHT22;8008;50.024;8.172;2023-02-25T19:17:28;4.90;60.00
15815;DHT22;8008;50.024;8.172;2023-02-25T19:19:59;4.90;59.90
15815;DHT22;8008;50.024;8.172;2023-02-25T19:22:29;4.90;60.10
15815;DHT22;8008;50.024;8.172;2023-02-25T19:24:56;4.90;59.90
15815;DHT22;8008;50.024;8.172;2023-02-25T19:27:26;4.90;59.80
15815;DHT22;8008;50.024;8.172;2023-02-25T19:29:56;4.90;59.80
15815;DHT22;8008;50.024;8.172;2023-02-25T19:32:25;4.90;59.80
15815;DHT22;8008;50.024;8.172;2023-02-25T19:34:53;4.90;60.50
15815;DHT22;8008;50.024;8.172;2023-02-25T19:37:21;4.90;60.60
15815;DHT22;8008;50.024;8.172;2023-02-25T19:39:50;4.90;60.30
15815;DHT22;8008;50.024;8.172;2023-02-25T19:42:18;5.00;60.00
15815;DHT22;8008;50.024;8.172;2023-02-25T19:44:46;5.00;60.00
15815;DHT22;8008;50.024;8.172;2023-02-25T19:47:14;5.00;60.60
15815;DHT22;8008;50.024;8.172;2023-02-25T19:49:42;5.10;61.00
15815;DHT22;8008;50.024;8.172;2023-02-25T19:52:10;5.00;60.70
15815;DHT22;8008;50.024;8.172;2023-02-25T19:54:38;5.00;61.20
15815;DHT22;8008;50.024;8.172;2023-02-25T19:57:08;5.00;61.60
15815;DHT22;8008;50.024;8.172;2023-02-25T19:59:37;4.90;61.10
15815;DHT22;8008;50.024;8.172;2023-02-25T20:02:05;4.90;61.80
15815;DHT22;8008;50.024;8.172;2023-02-25T20:04:33;4.90;61.80
15815;DHT22;8008;50.024;8.172;2023-02-25T20:07:01;4.90;61.70
15815;DHT22;8008;50.024;8.172;2023-02-25T20:09:29;4.90;62.20
15815;DHT22;8008;50.024;8.172;2023-02-25T20:11:56;4.90;61.80
15815;DHT22;8008;50.024;8.172;2023-02-25T20:14:26;4.80;61.70
15815;DHT22;8008;50.024;8.172;2023-02-25T20:16:54;4.70;62.00
15815;DHT22;8008;50.024;8.172;2023-02-25T20:19:22;4.80;62.30
15815;DHT22;8008;50.024;8.172;2023-02-25T20:21:53;4.80;62.80
15815;DHT22;8008;50.024;8.172;2023-02-25T20:24:21;4.80;62.30
15815;DHT22;8008;50.024;8.172;2023-02-25T20:26:49;4.80;62.90
15815;DHT22;8008;50.024;8.172;2023-02-25T20:29:17;4.80;62.40
15815;DHT22;8008;50.024;8.172;2023-02-25T20:31:46;4.80;62.40
15815;DHT22;8008;50.024;8.172;2023-02-25T20:34:16;4.70;63.00
15815;DHT22;8008;50.024;8.172;2023-02-25T20:36:49;4.60;61.70
15815;DHT22;8008;50.024;8.172;2023-02-25T20:39:41;4.60;62.00
15815;DHT22;8008;50.024;8.172;2023-02-25T20:42:14;4.60;61.60
15815;DHT22;8008;50.024;8.172;2023-02-25T20:44:43;4.60;61.90
15815;DHT22;8008;50.024;8.172;2023-02-25T20:47:17;4.60;62.40
15815;DHT22;8008;50.024;8.172;2023-02-25T20:49:45;4.60;62.60
15815;DHT22;8008;50.024;8.172;2023-02-25T20:52:14;4.70;62.20
15815;DHT22;8008;50.024;8.172;2023-02-25T20:54:43;4.70;62.60
15815;DHT22;8008;50.024;8.172;2023-02-25T20:57:11;4.70;62.00
15815;DHT22;8008;50.024;8.172;2023-02-25T20:59:40;4.60;61.90
15815;DHT22;8008;50.024;8.172;2023-02-25T21:02:09;4.60;61.40
15815;DHT22;8008;50.024;8.172;2023-02-25T21:04:38;4.50;61.00
15815;DHT22;8008;50.024;8.172;2023-02-25T21:07:06;4.50;61.50
15815;DHT22;8008;50.024;8.172;2023-02-25T21:09:34;4.50;62.00
15815;DHT22;8008;50.024;8.172;2023-02-25T21:12:02;4.50;61.30
15815;DHT22;8008;50.024;8.172;2023-02-25T21:14:30;4.50;61.50
15815;DHT22;8008;50.024;8.172;2023-02-25T21:16:59;4.50;62.40